createdAt,value
2022-08-28T00:00:02.489Z,99895.13
2022-08-28T00:02:29.079Z,99890.97
2022-08-28T00:04:55.713Z,99887.38
2022-08-28T00:07:22.385Z,99886.56
2022-08-28T00:09:48.935Z,99895.03
2022-08-28T00:12:15.516Z,99896.56
2022-08-28T00:14:42.181Z,99870.66
2022-08-28T00:17:08.710Z,99870.03
2022-08-28T00:19:38.737Z,99867.56
2022-08-28T00:22:06.769Z,99870.53
2022-08-28T00:24:34.289Z,99874.63
2022-08-28T00:27:19.373Z,99885.97
2022-08-28T00:29:46.022Z,99886.19
2022-08-28T00:32:13.798Z,99896.59
2022-08-28T00:34:40.464Z,99904.75
2022-08-28T00:37:07.546Z,99898.06
2022-08-28T00:39:34.546Z,99893.03
2022-08-28T00:42:01.098Z,99902.41
2022-08-28T00:44:29.046Z,99899.53
2022-08-28T00:46:57.803Z,99899.84
2022-08-28T00:49:28.477Z,99897.28
2022-08-28T00:52:05.815Z,99893.53
2022-08-28T00:54:34.940Z,99902.44
2022-08-28T00:57:05.128Z,99895.94
2022-08-28T00:59:31.671Z,99894.47
2022-08-28T01:01:59.490Z,99881.63
2022-08-28T01:04:28.486Z,99892.16
2022-08-28T01:06:57.220Z,99879.84
2022-08-28T01:09:27.297Z,99876.06
2022-08-28T01:11:57.913Z,99875.22
2022-08-28T01:14:26.662Z,99871.50
2022-08-28T01:16:57.191Z,99870.66
2022-08-28T01:19:35.147Z,99877.81
2022-08-28T01:22:21.862Z,99886.03
2022-08-28T01:24:50.831Z,99895.28
2022-08-28T01:27:17.454Z,99895.28
2022-08-28T01:29:44.805Z,99905.16
2022-08-28T01:32:28.583Z,99901.19
2022-08-28T01:34:55.127Z,99916.59
2022-08-28T01:37:21.687Z,99921.69
2022-08-28T01:39:48.258Z,99914.53
2022-08-28T01:42:14.917Z,99912.47
2022-08-28T01:44:41.499Z,99907.22
2022-08-28T01:47:08.128Z,99919.69
2022-08-28T01:49:34.646Z,99918.50
2022-08-28T01:52:01.723Z,99907.38
2022-08-28T01:54:29.992Z,99897.91
2022-08-28T01:56:56.694Z,99895.38
2022-08-28T01:59:23.298Z,99890.00
2022-08-28T02:01:49.977Z,99899.94
2022-08-28T02:04:16.796Z,99893.78
2022-08-28T02:06:43.665Z,99888.53
2022-08-28T02:09:14.464Z,99880.97
2022-08-28T02:11:46.537Z,99880.38
2022-08-28T02:14:14.300Z,99874.28
2022-08-28T02:16:40.858Z,99865.69
2022-08-28T02:19:07.414Z,99872.66
2022-08-28T02:21:35.494Z,99862.78
2022-08-28T02:24:02.117Z,99861.50
2022-08-28T02:26:30.401Z,99858.59
2022-08-28T02:28:57.037Z,99873.34
2022-08-28T02:31:25.962Z,99874.78
2022-08-28T02:33:52.593Z,99871.22
2022-08-28T02:36:20.847Z,99870.19
2022-08-28T02:38:47.616Z,99861.00
2022-08-28T02:41:14.440Z,99865.41
2022-08-28T02:43:41.350Z,99874.69
2022-08-28T02:46:08.421Z,99878.72
2022-08-28T02:48:37.142Z,99869.91
2022-08-28T02:51:08.311Z,99863.56
2022-08-28T02:53:35.850Z,99861.72
2022-08-28T02:56:03.096Z,99869.13
2022-08-28T02:58:32.268Z,99877.38
2022-08-28T03:01:01.805Z,99905.38
2022-08-28T03:03:31.183Z,99903.50
2022-08-28T03:06:01.843Z,99913.38
2022-08-28T03:08:28.770Z,99908.56
2022-08-28T03:10:55.711Z,99902.72
2022-08-28T03:13:27.098Z,99901.94
2022-08-28T03:15:55.855Z,99904.41
2022-08-28T03:18:24.480Z,99901.94
2022-08-28T03:20:52.618Z,99900.88
2022-08-28T03:23:28.662Z,99907.06
2022-08-28T03:26:00.153Z,99898.25
2022-08-28T03:28:29.813Z,99895.13
2022-08-28T03:30:57.863Z,99899.06
2022-08-28T03:33:25.357Z,99908.81
2022-08-28T03:35:52.135Z,99903.50
2022-08-28T03:38:19.166Z,99901.16
2022-08-28T03:40:46.926Z,99901.78
2022-08-28T03:43:16.842Z,99909.81
2022-08-28T03:46:00.632Z,99912.31
2022-08-28T03:48:31.231Z,99909.81
2022-08-28T03:50:59.795Z,99910.03
2022-08-28T03:53:29.407Z,99901.41
2022-08-28T03:55:57.053Z,99902.69
2022-08-28T03:58:24.621Z,99892.59
2022-08-28T04:00:51.386Z,99898.84
2022-08-28T04:03:18.641Z,99882.00
2022-08-28T04:05:46.770Z,99882.81
2022-08-28T04:08:16.603Z,99886.19
2022-08-28T04:10:44.628Z,99893.53
2022-08-28T04:13:13.061Z,99888.88
2022-08-28T04:15:41.515Z,99901.28
2022-08-28T04:18:09.420Z,99900.88
2022-08-28T04:20:36.838Z,99911.66
2022-08-28T04:23:04.121Z,99907.03
2022-08-28T04:25:31.387Z,99901.34
2022-08-28T04:27:58.182Z,99912.06
2022-08-28T04:30:24.843Z,99899.44
2022-08-28T04:32:51.388Z,99894.81
2022-08-28T04:35:18.394Z,99900.31
2022-08-28T04:37:44.897Z,99911.09
2022-08-28T04:40:12.946Z,99908.13
2022-08-28T04:42:40.148Z,99911.25
2022-08-28T04:45:07.802Z,99913.59
2022-08-28T04:47:39.187Z,99923.06
2022-08-28T04:50:07.680Z,99924.53
2022-08-28T04:52:34.468Z,99917.13
2022-08-28T04:55:01.667Z,99927.44
2022-08-28T04:57:28.308Z,99933.97
2022-08-28T04:59:54.940Z,99942.41
2022-08-28T05:02:21.521Z,99947.22
2022-08-28T05:04:48.329Z,99956.69
2022-08-28T05:07:14.874Z,99960.03
2022-08-28T05:09:41.370Z,99952.66
2022-08-28T05:12:07.910Z,99948.41
2022-08-28T05:14:35.519Z,99952.59
2022-08-28T05:17:02.043Z,99947.09
2022-08-28T05:19:28.654Z,99953.19
2022-08-28T05:21:55.285Z,99963.25
2022-08-28T05:24:22.473Z,99952.94
2022-08-28T05:26:49.128Z,99951.00
2022-08-28T05:29:16.946Z,99949.34
2022-08-28T05:31:44.114Z,99948.63
2022-08-28T05:34:12.750Z,99948.13
2022-08-28T05:36:39.993Z,99949.28
2022-08-28T05:39:10.153Z,99943.56
2022-08-28T05:41:39.110Z,99948.84
2022-08-28T05:44:08.287Z,99953.81
2022-08-28T05:46:37.542Z,99947.19
2022-08-28T05:49:09.138Z,99948.50
2022-08-28T05:51:37.118Z,99941.03
2022-08-28T05:54:03.981Z,99953.22
2022-08-28T05:56:35.014Z,99952.28
2022-08-28T05:59:03.197Z,99950.75
2022-08-28T06:01:32.737Z,99947.06
2022-08-28T06:04:02.075Z,99954.69
2022-08-28T06:06:31.111Z,99952.69
2022-08-28T06:08:59.686Z,99957.88
2022-08-28T06:11:30.704Z,99955.03
2022-08-28T06:14:01.791Z,99954.72
2022-08-28T06:16:34.961Z,99954.13
2022-08-28T06:19:01.637Z,99950.47
2022-08-28T06:21:29.065Z,99953.44
2022-08-28T06:23:56.159Z,99943.53
2022-08-28T06:26:23.207Z,99944.53
2022-08-28T06:28:49.731Z,99948.94
2022-08-28T06:31:24.676Z,99946.38
2022-08-28T06:33:55.164Z,99952.25
2022-08-28T06:36:22.536Z,99953.00
2022-08-28T06:38:49.522Z,99956.69
2022-08-28T06:41:16.374Z,99960.66
2022-08-28T06:43:43.001Z,99966.00
2022-08-28T06:46:09.794Z,99972.47
2022-08-28T06:48:36.533Z,99967.69
2022-08-28T06:51:06.808Z,99965.06
2022-08-28T06:53:33.582Z,99958.59
2022-08-28T06:56:07.260Z,99962.19
2022-08-28T06:58:35.978Z,99960.38
2022-08-28T07:01:16.731Z,99971.63
2022-08-28T07:03:45.035Z,99968.13
2022-08-28T07:06:14.017Z,99980.72
2022-08-28T07:08:42.488Z,99977.56
2022-08-28T07:11:29.489Z,99979.97
2022-08-28T07:13:57.031Z,99981.94
2022-08-28T07:16:29.462Z,99987.16
2022-08-28T07:18:57.140Z,99983.91
2022-08-28T07:21:24.135Z,99985.94
2022-08-28T07:23:50.662Z,99992.28
2022-08-28T07:26:20.597Z,99987.84
2022-08-28T07:28:47.291Z,99990.38
2022-08-28T07:31:16.578Z,99994.53
2022-08-28T07:33:44.819Z,99990.81
2022-08-28T07:36:28.816Z,99998.69
2022-08-28T07:38:57.955Z,99998.22
2022-08-28T07:41:27.923Z,99996.13
2022-08-28T07:44:12.992Z,99996.66
2022-08-28T07:46:40.356Z,99991.81
2022-08-28T07:49:08.571Z,99990.00
2022-08-28T07:51:36.006Z,99998.31
2022-08-28T07:54:04.047Z,99994.84
2022-08-28T07:56:31.467Z,99994.31
2022-08-28T07:58:59.318Z,99993.31
2022-08-28T08:01:27.629Z,99986.66
2022-08-28T08:04:01.308Z,99984.63
2022-08-28T08:06:34.494Z,99987.72
2022-08-28T08:09:02.311Z,99990.97
2022-08-28T08:11:32.215Z,99995.09
2022-08-28T08:14:05.676Z,100003.75
2022-08-28T08:16:41.258Z,100003.75
2022-08-28T08:19:10.171Z,100000.16
2022-08-28T08:21:37.603Z,99997.50
2022-08-28T08:24:04.488Z,99997.06
2022-08-28T08:26:31.269Z,100004.91
2022-08-28T08:29:04.963Z,100007.53
2022-08-28T08:31:33.280Z,100011.00
2022-08-28T08:34:04.722Z,100009.44
2022-08-28T08:36:34.235Z,100015.78
2022-08-28T08:39:01.860Z,100008.84
2022-08-28T08:41:43.581Z,100006.44
2022-08-28T08:44:23.460Z,100013.72
2022-08-28T08:47:27.051Z,100016.38
2022-08-28T08:50:27.452Z,100010.94
2022-08-28T08:53:21.591Z,100014.63
2022-08-28T08:55:50.826Z,100007.75
2022-08-28T08:58:35.242Z,100008.06
2022-08-28T09:01:04.712Z,100005.13
2022-08-28T09:03:49.525Z,100021.28
2022-08-28T09:06:29.891Z,100013.22
2022-08-28T09:09:00.468Z,100005.00
2022-08-28T09:11:41.715Z,100007.03
2022-08-28T09:14:33.058Z,100019.84
2022-08-28T09:17:00.811Z,100013.81
2022-08-28T09:19:27.403Z,100011.09
2022-08-28T09:21:54.507Z,100017.56
2022-08-28T09:24:22.656Z,100017.56
2022-08-28T09:26:56.535Z,100017.56
2022-08-28T09:29:47.079Z,100017.00
2022-08-28T09:32:16.565Z,100018.75
2022-08-28T09:35:06.346Z,100021.84
2022-08-28T09:37:34.695Z,100033.78
2022-08-28T09:40:20.310Z,100026.63
2022-08-28T09:43:28.200Z,100026.38
2022-08-28T09:45:58.274Z,100024.69
2022-08-28T09:48:36.474Z,100030.28
2022-08-28T09:51:07.836Z,100022.25
2022-08-28T09:54:02.023Z,100020.09
2022-08-28T09:56:32.738Z,100022.34
2022-08-28T09:59:06.845Z,100016.25
2022-08-28T10:01:52.566Z,100020.13
2022-08-28T10:04:19.483Z,100027.06
2022-08-28T10:06:54.937Z,100016.81
2022-08-28T10:09:45.126Z,100032.03
2022-08-28T10:12:26.544Z,100029.00
2022-08-28T10:15:13.190Z,100021.00
2022-08-28T10:17:49.863Z,100023.50
2022-08-28T10:20:38.539Z,100020.16
2022-08-28T10:23:24.778Z,100016.31
2022-08-28T10:26:19.478Z,100013.25
2022-08-28T10:29:16.255Z,100016.84
2022-08-28T10:32:20.873Z,100008.53
2022-08-28T10:34:50.341Z,100006.28
2022-08-28T10:37:56.755Z,100005.47
2022-08-28T10:40:28.555Z,99998.47
2022-08-28T10:43:04.248Z,100007.66
2022-08-28T10:45:33.593Z,100003.72
2022-08-28T10:48:27.301Z,100003.38
2022-08-28T10:51:00.795Z,100004.13
2022-08-28T10:53:38.087Z,99994.97
2022-08-28T10:56:13.116Z,99987.69
2022-08-28T10:58:40.924Z,99990.19
2022-08-28T11:01:32.900Z,99991.28
2022-08-28T11:04:03.451Z,99992.94
2022-08-28T11:06:39.031Z,99987.59
2022-08-28T11:09:25.795Z,99996.75
2022-08-28T11:12:10.145Z,99999.50
2022-08-28T11:14:47.762Z,100000.81
2022-08-28T11:17:30.476Z,99995.13
2022-08-28T11:20:00.147Z,99995.63
2022-08-28T11:22:51.100Z,99998.31
2022-08-28T11:25:32.503Z,99999.63
2022-08-28T11:28:23.675Z,99998.34
2022-08-28T11:31:05.597Z,99987.44
2022-08-28T11:33:52.634Z,99997.09
2022-08-28T11:36:21.879Z,99991.47
2022-08-28T11:38:51.356Z,99981.09
2022-08-28T11:41:30.384Z,99990.13
2022-08-28T11:43:59.632Z,99989.03
2022-08-28T11:46:32.730Z,99989.97
2022-08-28T11:49:02.275Z,99984.84
2022-08-28T11:52:01.553Z,99977.84
2022-08-28T11:54:47.173Z,99984.28
2022-08-28T11:57:15.031Z,99971.78
2022-08-28T12:00:18.791Z,99975.22
2022-08-28T12:02:49.623Z,99974.75
2022-08-28T12:05:16.154Z,99977.84
2022-08-28T12:07:45.125Z,99972.47
2022-08-28T12:10:20.721Z,99962.38
2022-08-28T12:12:47.202Z,99965.09
2022-08-28T12:15:28.731Z,99964.88
2022-08-28T12:18:06.129Z,99960.25
2022-08-28T12:20:40.946Z,99969.84
2022-08-28T12:23:35.059Z,99967.03
2022-08-28T12:26:06.664Z,99969.66
2022-08-28T12:28:46.675Z,99961.25
2022-08-28T12:31:56.987Z,99965.75
2022-08-28T12:34:51.556Z,99952.25
2022-08-28T12:37:52.203Z,99951.44
2022-08-28T12:40:31.843Z,99955.59
2022-08-28T12:43:04.216Z,99948.28
2022-08-28T12:45:48.743Z,99954.06
2022-08-28T12:48:22.982Z,99944.72
2022-08-28T12:50:58.869Z,99949.91
2022-08-28T12:53:27.584Z,99940.28
2022-08-28T12:55:55.643Z,99944.19
2022-08-28T12:58:39.391Z,99945.13
2022-08-28T13:01:10.251Z,99943.13
2022-08-28T13:03:50.123Z,99935.44
2022-08-28T13:06:25.098Z,99938.63
2022-08-28T13:08:59.718Z,99937.41
2022-08-28T13:11:30.693Z,99938.34
2022-08-28T13:13:57.243Z,99934.94
2022-08-28T13:16:43.655Z,99937.47
2022-08-28T13:19:10.708Z,99936.78
2022-08-28T13:22:00.536Z,99925.53
2022-08-28T13:24:35.815Z,99934.84
2022-08-28T13:27:08.811Z,99934.31
2022-08-28T13:29:36.985Z,99925.75
2022-08-28T13:32:17.506Z,99933.69
2022-08-28T13:35:12.870Z,99930.59
2022-08-28T13:37:53.311Z,99920.34
2022-08-28T13:40:55.788Z,99924.66
2022-08-28T13:43:12.876Z,99924.50
2022-08-28T13:45:42.944Z,99917.34
2022-08-28T13:48:13.255Z,99912.03
2022-08-28T13:50:47.191Z,99917.63
2022-08-28T13:53:14.941Z,99910.41
2022-08-28T13:55:41.558Z,99903.34
2022-08-28T13:58:08.146Z,99907.94
2022-08-28T14:00:39.837Z,99908.94
2022-08-28T14:03:25.130Z,99909.56
2022-08-28T14:05:51.655Z,99911.78
2022-08-28T14:08:18.205Z,99906.97
2022-08-28T14:10:44.734Z,99896.66
2022-08-28T14:13:11.267Z,99899.41
2022-08-28T14:15:38.382Z,99889.47
2022-08-28T14:18:05.498Z,99895.69
2022-08-28T14:20:32.786Z,99902.66
2022-08-28T14:22:59.374Z,99890.41
2022-08-28T14:25:26.014Z,99883.31
2022-08-28T14:27:52.577Z,99889.91
2022-08-28T14:30:19.889Z,99892.13
2022-08-28T14:32:46.415Z,99894.09
2022-08-28T14:35:13.109Z,99898.06
2022-08-28T14:37:39.718Z,99910.63
2022-08-28T14:40:07.161Z,99899.16
2022-08-28T14:42:33.727Z,99892.84
2022-08-28T14:45:00.310Z,99901.00
2022-08-28T14:47:27.122Z,99907.97
2022-08-28T14:49:53.716Z,99906.00
2022-08-28T14:52:20.299Z,99902.69
2022-08-28T14:54:46.780Z,99899.69
2022-08-28T14:57:13.665Z,99896.25
2022-08-28T14:59:40.265Z,99902.00
2022-08-28T15:02:07.824Z,99903.78
2022-08-28T15:04:35.363Z,99909.44
2022-08-28T15:07:06.396Z,99906.31
2022-08-28T15:09:36.837Z,99903.63
2022-08-28T15:12:03.662Z,99903.16
2022-08-28T15:14:30.425Z,99901.78
2022-08-28T15:16:57.089Z,99901.78
2022-08-28T15:19:24.092Z,99898.69
2022-08-28T15:21:54.063Z,99902.53
2022-08-28T15:24:24.293Z,99912.03
2022-08-28T15:26:50.928Z,99911.81
2022-08-28T15:29:18.277Z,99919.84
2022-08-28T15:31:48.944Z,99912.59
2022-08-28T15:34:21.338Z,99922.00
2022-08-28T15:36:54.863Z,99920.50
2022-08-28T15:39:42.755Z,99917.88
2022-08-28T15:42:10.331Z,99922.16
2022-08-28T15:44:37.417Z,99910.84
2022-08-28T15:47:05.047Z,99918.78
2022-08-28T15:49:36.156Z,99918.72
2022-08-28T15:52:10.805Z,99922.09
2022-08-28T15:54:37.546Z,99912.31
2022-08-28T15:57:04.231Z,99916.41
2022-08-28T15:59:39.977Z,99908.41
2022-08-28T16:02:17.805Z,99905.38
2022-08-28T16:04:44.398Z,99914.41
2022-08-28T16:07:11.159Z,99915.75
2022-08-28T16:09:37.811Z,99915.38
2022-08-28T16:12:04.502Z,99913.53
2022-08-28T16:14:32.764Z,99915.25
2022-08-28T16:16:59.395Z,99909.72
2022-08-28T16:19:32.555Z,99916.47
2022-08-28T16:21:59.076Z,99912.38
2022-08-28T16:24:25.652Z,99909.13
2022-08-28T16:26:52.161Z,99904.38
2022-08-28T16:29:18.879Z,99907.19
2022-08-28T16:31:47.990Z,99904.22
2022-08-28T16:34:15.589Z,99911.31
2022-08-28T16:36:48.148Z,99912.81
2022-08-28T16:39:14.866Z,99921.06
2022-08-28T16:41:42.171Z,99927.22
2022-08-28T16:44:09.075Z,99929.50
2022-08-28T16:46:35.725Z,99931.78
2022-08-28T16:49:02.584Z,99933.25
2022-08-28T16:51:29.762Z,99943.53
2022-08-28T16:53:56.882Z,99943.59
2022-08-28T16:56:26.723Z,99946.09
2022-08-28T16:58:53.974Z,99952.19
2022-08-28T17:01:24.071Z,99958.28
2022-08-28T17:03:54.717Z,99962.72
2022-08-28T17:06:27.116Z,99968.78
2022-08-28T17:08:56.895Z,99972.34
2022-08-28T17:11:25.905Z,99971.50
2022-08-28T17:13:53.210Z,99974.78
2022-08-28T17:16:20.804Z,99975.78
2022-08-28T17:18:51.987Z,99977.09
2022-08-28T17:21:38.476Z,99980.81
2022-08-28T17:24:05.407Z,99975.88
2022-08-28T17:26:31.943Z,99975.28
2022-08-28T17:28:58.615Z,99988.94
2022-08-28T17:31:25.177Z,99986.28
2022-08-28T17:33:51.806Z,99991.59
2022-08-28T17:36:25.675Z,99988.19
2022-08-28T17:39:05.606Z,99995.63
2022-08-28T17:41:33.432Z,100004.06
2022-08-28T17:44:01.316Z,100009.13
2022-08-28T17:46:28.246Z,100015.16
2022-08-28T17:48:56.097Z,100018.00
2022-08-28T17:51:40.418Z,100013.38
2022-08-28T17:54:16.797Z,100021.91
2022-08-28T17:56:43.962Z,100020.47
2022-08-28T17:59:11.825Z,100027.41
2022-08-28T18:01:38.929Z,100024.94
2022-08-28T18:04:05.895Z,100023.53
2022-08-28T18:06:33.512Z,100030.13
2022-08-28T18:09:00.455Z,100024.47
2022-08-28T18:11:27.442Z,100025.53
2022-08-28T18:13:54.169Z,100018.03
2022-08-28T18:16:20.941Z,100019.28
2022-08-28T18:18:47.666Z,100015.56
2022-08-28T18:21:14.811Z,100018.41
2022-08-28T18:23:41.408Z,100025.78
2022-08-28T18:26:08.613Z,100026.13
2022-08-28T18:28:35.646Z,100031.19
2022-08-28T18:31:03.174Z,100038.09
2022-08-28T18:33:29.735Z,100035.91
2022-08-28T18:35:56.873Z,100045.00
2022-08-28T18:38:28.063Z,100045.34
2022-08-28T18:40:55.902Z,100049.13
2022-08-28T18:43:22.560Z,100052.88
2022-08-28T18:45:49.635Z,100049.84
2022-08-28T18:48:16.881Z,100047.09
2022-08-28T18:50:46.416Z,100052.47
2022-08-28T18:53:18.089Z,100055.38
2022-08-28T18:55:45.813Z,100050.94
2022-08-28T18:58:15.447Z,100054.28
2022-08-28T19:00:42.712Z,100046.53
2022-08-28T19:03:09.957Z,100050.06
2022-08-28T19:05:37.870Z,100049.53
2022-08-28T19:08:04.661Z,100054.94
2022-08-28T19:10:34.738Z,100059.59
2022-08-28T19:13:02.462Z,100057.38
2022-08-28T19:15:29.507Z,100067.97
2022-08-28T19:17:56.141Z,100063.78
2022-08-28T19:20:22.923Z,100068.63
2022-08-28T19:22:49.848Z,100072.13
2022-08-28T19:25:27.893Z,100068.13
2022-08-28T19:28:01.546Z,100080.25
2022-08-28T19:30:32.909Z,100084.47
2022-08-28T19:33:02.161Z,100091.28
2022-08-28T19:35:28.857Z,100086.53
2022-08-28T19:37:55.430Z,100090.25
2022-08-28T19:40:22.490Z,100094.44
2022-08-28T19:42:52.119Z,100092.19
2022-08-28T19:45:19.621Z,100089.78
2022-08-28T19:47:47.211Z,100092.41
2022-08-28T19:50:15.726Z,100104.06
2022-08-28T19:52:43.398Z,100109.09
2022-08-28T19:55:17.393Z,100111.50
2022-08-28T19:57:43.959Z,100110.78
2022-08-28T20:00:11.248Z,100118.81
2022-08-28T20:02:37.815Z,100115.44
2022-08-28T20:05:05.507Z,100123.72
2022-08-28T20:07:32.014Z,100122.50
2022-08-28T20:09:58.559Z,100127.44
2022-08-28T20:12:25.159Z,100115.38
2022-08-28T20:14:52.040Z,100118.34
2022-08-28T20:17:18.831Z,100123.28
2022-08-28T20:19:48.782Z,100118.00
2022-08-28T20:22:15.607Z,100116.81
2022-08-28T20:24:42.325Z,100124.09
2022-08-28T20:27:09.190Z,100123.50
2022-08-28T20:29:36.055Z,100129.22
2022-08-28T20:32:03.242Z,100123.13
2022-08-28T20:34:29.838Z,100121.06
2022-08-28T20:36:56.394Z,100129.69
2022-08-28T20:39:23.346Z,100120.09
2022-08-28T20:41:49.981Z,100121.31
2022-08-28T20:44:19.386Z,100131.00
2022-08-28T20:46:51.081Z,100130.38
2022-08-28T20:49:21.737Z,100132.75
2022-08-28T20:51:54.549Z,100133.72
2022-08-28T20:54:24.468Z,100131.69
2022-08-28T20:56:52.146Z,100136.66
2022-08-28T20:59:20.096Z,100129.25
2022-08-28T21:01:46.750Z,100129.50
2022-08-28T21:04:13.384Z,100135.81
2022-08-28T21:06:39.925Z,100133.34
2022-08-28T21:09:06.475Z,100137.50
2022-08-28T21:11:33.634Z,100133.06
2022-08-28T21:14:00.235Z,100139.63
2022-08-28T21:16:26.835Z,100138.88
2022-08-28T21:19:14.869Z,100143.28
2022-08-28T21:21:41.174Z,100142.56
2022-08-28T21:24:10.699Z,100139.75
2022-08-28T21:26:39.370Z,100143.28
2022-08-28T21:29:09.792Z,100151.19
2022-08-28T21:31:36.978Z,100145.50
2022-08-28T21:34:03.520Z,100143.03
2022-08-28T21:36:30.134Z,100148.53
2022-08-28T21:38:57.910Z,100146.50
2022-08-28T21:41:24.507Z,100137.56
2022-08-28T21:43:51.052Z,100144.06
2022-08-28T21:46:17.654Z,100143.22
2022-08-28T21:48:48.427Z,100139.66
2022-08-28T21:51:16.401Z,100143.22
2022-08-28T21:53:43.269Z,100146.66
2022-08-28T21:56:10.651Z,100149.28
2022-08-28T21:58:38.641Z,100148.66
2022-08-28T22:01:05.528Z,100150.16
2022-08-28T22:03:32.325Z,100150.09
2022-08-28T22:05:58.868Z,100152.84
2022-08-28T22:08:28.685Z,100146.97
2022-08-28T22:10:56.454Z,100158.56
2022-08-28T22:13:22.993Z,100165.50
2022-08-28T22:15:49.543Z,100157.88
2022-08-28T22:18:16.316Z,100149.88
2022-08-28T22:21:02.827Z,100140.72
2022-08-28T22:23:33.636Z,100147.06
2022-08-28T22:26:03.359Z,100146.41
2022-08-28T22:28:31.362Z,100146.59
2022-08-28T22:30:58.594Z,100153.28
2022-08-28T22:33:26.254Z,100146.59
2022-08-28T22:35:53.235Z,100152.91
2022-08-28T22:38:21.386Z,100152.47
2022-08-28T22:40:48.474Z,100147.41
2022-08-28T22:43:16.422Z,100146.63
2022-08-28T22:45:46.364Z,100150.66
2022-08-28T22:48:15.086Z,100140.75
2022-08-28T22:50:43.067Z,100139.69
2022-08-28T22:53:10.422Z,100139.91
2022-08-28T22:55:41.377Z,100145.41
2022-08-28T22:58:10.905Z,100145.47
2022-08-28T23:00:40.110Z,100147.81
2022-08-28T23:03:06.864Z,100137.66
2022-08-28T23:05:33.983Z,100140.63
2022-08-28T23:08:00.514Z,100142.72
2022-08-28T23:10:48.372Z,100136.63
2022-08-28T23:13:15.184Z,100141.56
2022-08-28T23:15:43.381Z,100145.13
2022-08-28T23:18:11.117Z,100154.88
2022-08-28T23:20:39.398Z,100150.25
2022-08-28T23:23:06.789Z,100156.63
2022-08-28T23:25:34.195Z,100166.97
2022-08-28T23:28:05.853Z,100162.56
2022-08-28T23:30:33.406Z,100168.72
2022-08-28T23:33:00.012Z,100163.47
2022-08-28T23:35:26.700Z,100166.41
2022-08-28T23:37:53.312Z,100170.00
2022-08-28T23:40:22.564Z,100171.66
2022-08-28T23:42:49.330Z,100171.22
2022-08-28T23:45:17.224Z,100172.06
2022-08-28T23:47:44.387Z,100179.84
2022-08-28T23:50:20.481Z,100164.03
2022-08-28T23:52:47.975Z,100159.34
2022-08-28T23:55:16.759Z,100163.44
2022-08-28T23:57:44.109Z,100162.81
